Station Historical Data
Daily Summary for March 4, 2017 Units:  Both    English   Metric
« Previous Day
Next Day »
Daily Weekly Monthly Yearly Custom
  High: Low: Average:
Temperature: 20.5 °F /  -6.4 °C 10.5 °F /  -11.9 °C 17 °F /  -8.3 °C
Dew Point: 14.5 °F /  -9.7 °C -1.0 °F /  -18.3 °C 6.3 °F /  -14.3 °C
Humidity: 84% 40% 63%
Wind Speed: 10.0mph /  16.1km/h - 3.8mph /  6.1km/h
Wind Gust: 17.0mph /  27.4km/h - -
Wind- - WSW
Pressure: 30.75 in /  1041.2 hPa 30.53 in /  1033.7 hPa -
Precipitation: 0.00 in /  0 mm    
Historical Graphs
 
 
Tabular Data for March 4, 2017
Time Temperature Dew Point Pressure Wind Wind Speed Wind Gust Humidity Rainfall Rate (Hourly)
00:04 18.4 °F /  -7.6 °C 8.9 °F /  -12.8 °C 30.54in /  1034.1hPa WNW 4.0mph /  6.4km/h 9.0mph /  14.5km/h 66% 0.00in /  0mm
00:09 18.5 °F /  -7.5 °C 9.0 °F /  -12.8 °C 30.54in /  1034.1hPa West 4.0mph /  6.4km/h 9.0mph /  14.5km/h 66% 0.00in /  0mm
00:14 18.6 °F /  -7.4 °C 9.1 °F /  -12.7 °C 30.55in /  1034.4hPa WNW 2.0mph /  3.2km/h 6.0mph /  9.7km/h 66% 0.00in /  0mm
00:19 18.7 °F /  -7.4 °C 9.2 °F /  -12.7 °C 30.54in /  1034.1hPa Calm   6.0mph /  9.7km/h 66% 0.00in /  0mm
00:24 18.7 °F /  -7.4 °C 9.6 °F /  -12.4 °C 30.54in /  1034.1hPa NW 3.0mph /  4.8km/h 6.0mph /  9.7km/h 67% 0.00in /  0mm
00:29 18.7 °F /  -7.4 °C 9.9 °F /  -12.3 °C 30.54in /  1034.1hPa NW 5.0mph /  8km/h 6.0mph /  9.7km/h 68% 0.00in /  0mm
00:34 18.6 °F /  -7.4 °C 9.8 °F /  -12.3 °C 30.54in /  1034.1hPa NW 3.0mph /  4.8km/h 7.0mph /  11.3km/h 68% 0.00in /  0mm
00:39 18.7 °F /  -7.4 °C 9.9 °F /  -12.3 °C 30.54in /  1034.1hPa West 2.0mph /  3.2km/h 8.0mph /  12.9km/h 68% 0.00in /  0mm
00:44 18.6 °F /  -7.4 °C 9.8 °F /  -12.3 °C 30.55in /  1034.4hPa WNW 5.0mph /  8km/h 6.0mph /  9.7km/h 68% 0.00in /  0mm
00:49 18.4 °F /  -7.6 °C 10.2 °F /  -12.1 °C 30.55in /  1034.4hPa West 5.0mph /  8km/h 8.0mph /  12.9km/h 70% 0.00in /  0mm
00:54 18.4 °F /  -7.6 °C 10.2 °F /  -12.1 °C 30.54in /  1034.1hPa West 4.0mph /  6.4km/h 8.0mph /  12.9km/h 70% 0.00in /  0mm
00:59 18.4 °F /  -7.6 °C 10.2 °F /  -12.1 °C 30.54in /  1034.1hPa West 3.0mph /  4.8km/h 7.0mph /  11.3km/h 70% 0.00in /  0mm
01:04 18.5 °F /  -7.5 °C 10.3 °F /  -12.1 °C 30.54in /  1034.1hPa West 4.0mph /  6.4km/h 8.0mph /  12.9km/h 70% 0.00in /  0mm
01:09 18.5 °F /  -7.5 °C 10.3 °F /  -12.1 °C 30.54in /  1034.1hPa WNW 2.0mph /  3.2km/h 8.0mph /  12.9km/h 70% 0.00in /  0mm
01:14 18.5 °F /  -7.5 °C 10.3 °F /  -12.1 °C 30.54in /  1034.1hPa West 5.0mph /  8km/h 7.0mph /  11.3km/h 70% 0.00in /  0mm
01:19 18.5 °F /  -7.5 °C 10.3 °F /  -12.1 °C 30.54in /  1034.1hPa West 5.0mph /  8km/h 7.0mph /  11.3km/h 70% 0.00in /  0mm
01:24 18.5 °F /  -7.5 °C 10.3 °F /  -12.1 °C 30.54in /  1034.1hPa West 4.0mph /  6.4km/h 8.0mph /  12.9km/h 70% 0.00in /  0mm
01:29 18.6 °F /  -7.4 °C 10.4 °F /  -12 °C 30.54in /  1034.1hPa West 4.0mph /  6.4km/h 8.0mph /  12.9km/h 70% 0.00in /  0mm
01:34 18.6 °F /  -7.4 °C 10.4 °F /  -12 °C 30.54in /  1034.1hPa West 5.0mph /  8km/h 8.0mph /  12.9km/h 70% 0.00in /  0mm
01:39 18.6 °F /  -7.4 °C 10.4 °F /  -12 °C 30.54in /  1034.1hPa West 5.0mph /  8km/h 8.0mph /  12.9km/h 70% 0.00in /  0mm
01:44 18.7 °F /  -7.4 °C 10.5 °F /  -11.9 °C 30.54in /  1034.1hPa West 3.0mph /  4.8km/h 8.0mph /  12.9km/h 70% 0.00in /  0mm
01:49 18.8 °F /  -7.3 °C 10.6 °F /  -11.9 °C 30.54in /  1034.1hPa West 2.0mph /  3.2km/h 8.0mph /  12.9km/h 70% 0.00in /  0mm
01:54 18.8 °F /  -7.3 °C 10.3 °F /  -12.1 °C 30.54in /  1034.1hPa WSW 6.0mph /  9.7km/h 10.0mph /  16.1km/h 69% 0.00in /  0mm
01:59 18.8 °F /  -7.3 °C 10.6 °F /  -11.9 °C 30.54in /  1034.1hPa West 4.0mph /  6.4km/h 10.0mph /  16.1km/h 70% 0.00in /  0mm
02:04 18.8 °F /  -7.3 °C 10.6 °F /  -11.9 °C 30.54in /  1034.1hPa West 5.0mph /  8km/h 9.0mph /  14.5km/h 70% 0.00in /  0mm
02:09 18.8 °F /  -7.3 °C 10.6 °F /  -11.9 °C 30.54in /  1034.1hPa West 4.0mph /  6.4km/h 9.0mph /  14.5km/h 70% 0.00in /  0mm
02:14 18.9 °F /  -7.3 °C 10.7 °F /  -11.8 °C 30.53in /  1033.7hPa West 3.0mph /  4.8km/h 7.0mph /  11.3km/h 70% 0.00in /  0mm
02:19 18.9 °F /  -7.3 °C 10.7 °F /  -11.8 °C 30.53in /  1033.7hPa West 3.0mph /  4.8km/h 7.0mph /  11.3km/h 70% 0.00in /  0mm
02:24 19.0 °F /  -7.2 °C 10.8 °F /  -11.8 °C 30.53in /  1033.7hPa West 5.0mph /  8km/h 8.0mph /  12.9km/h 70% 0.00in /  0mm
02:29 19.0 °F /  -7.2 °C 11.1 °F /  -11.6 °C 30.53in /  1033.7hPa NNW 2.0mph /  3.2km/h 9.0mph /  14.5km/h 71% 0.00in /  0mm
02:34 18.9 °F /  -7.3 °C 11.0 °F /  -11.7 °C 30.53in /  1033.7hPa West 4.0mph /  6.4km/h 8.0mph /  12.9km/h 71% 0.00in /  0mm
02:39 18.9 °F /  -7.3 °C 11.0 °F /  -11.7 °C 30.54in /  1034.1hPa West 4.0mph /  6.4km/h 9.0mph /  14.5km/h 71% 0.00in /  0mm
02:44 19.0 °F /  -7.2 °C 11.5 °F /  -11.4 °C 30.53in /  1033.7hPa WSW 1.0mph /  1.6km/h 9.0mph /  14.5km/h 72% 0.00in /  0mm
02:49 19.0 °F /  -7.2 °C 11.5 °F /  -11.4 °C 30.53in /  1033.7hPa WSW 7.0mph /  11.3km/h 11.0mph /  17.7km/h 72% 0.00in /  0mm
02:54 19.0 °F /  -7.2 °C 11.5 °F /  -11.4 °C 30.53in /  1033.7hPa WNW 3.0mph /  4.8km/h 7.0mph /  11.3km/h 72% 0.00in /  0mm
02:59 19.1 °F /  -7.2 °C 11.9 °F /  -11.2 °C 30.53in /  1033.7hPa West 5.0mph /  8km/h 8.0mph /  12.9km/h 73% 0.00in /  0mm
03:04 19.1 °F /  -7.2 °C 11.9 °F /  -11.2 °C 30.53in /  1033.7hPa West 2.0mph /  3.2km/h 10.0mph /  16.1km/h 73% 0.00in /  0mm
03:09 19.0 °F /  -7.2 °C 11.8 °F /  -11.2 °C 30.54in /  1034.1hPa West 5.0mph /  8km/h 11.0mph /  17.7km/h 73% 0.00in /  0mm
03:14 19.0 °F /  -7.2 °C 12.1 °F /  -11.1 °C 30.54in /  1034.1hPa West 5.0mph /  8km/h 11.0mph /  17.7km/h 74% 0.00in /  0mm
03:19 19.0 °F /  -7.2 °C 12.1 °F /  -11.1 °C 30.53in /  1033.7hPa West 6.0mph /  9.7km/h 14.0mph /  22.5km/h 74% 0.00in /  0mm
03:24 19.1 °F /  -7.2 °C 12.2 °F /  -11 °C 30.54in /  1034.1hPa West 6.0mph /  9.7km/h 14.0mph /  22.5km/h 74% 0.00in /  0mm
03:29 19.1 °F /  -7.2 °C 12.2 °F /  -11 °C 30.54in /  1034.1hPa West 6.0mph /  9.7km/h 13.0mph /  20.9km/h 74% 0.00in /  0mm
03:34 19.0 °F /  -7.2 °C 12.1 °F /  -11.1 °C 30.54in /  1034.1hPa WNW 8.0mph /  12.9km/h 11.0mph /  17.7km/h 74% 0.00in /  0mm
03:39 19.0 °F /  -7.2 °C 12.4 °F /  -10.9 °C 30.54in /  1034.1hPa West 8.0mph /  12.9km/h 11.0mph /  17.7km/h 75% 0.00in /  0mm
03:44 19.1 °F /  -7.2 °C 12.5 °F /  -10.8 °C 30.54in /  1034.1hPa WSW 5.0mph /  8km/h 14.0mph /  22.5km/h 75% 0.00in /  0mm
03:49 19.3 °F /  -7.1 °C 12.7 °F /  -10.7 °C 30.55in /  1034.4hPa WNW 5.0mph /  8km/h 14.0mph /  22.5km/h 75% 0.00in /  0mm
03:54 19.1 °F /  -7.2 °C 13.1 °F /  -10.5 °C 30.55in /  1034.4hPa West 4.0mph /  6.4km/h 10.0mph /  16.1km/h 77% 0.00in /  0mm
03:59 18.9 °F /  -7.3 °C 13.7 °F /  -10.2 °C 30.55in /  1034.4hPa West 5.0mph /  8km/h 12.0mph /  19.3km/h 80% 0.00in /  0mm
04:04 18.7 °F /  -7.4 °C 13.8 °F /  -10.1 °C 30.55in /  1034.4hPa West 8.0mph /  12.9km/h 11.0mph /  17.7km/h 81% 0.00in /  0mm
04:09 18.6 °F /  -7.4 °C 14.0 °F /  -10 °C 30.55in /  1034.4hPa West 8.0mph /  12.9km/h 11.0mph /  17.7km/h 82% 0.00in /  0mm
04:14 18.7 °F /  -7.4 °C 14.1 °F /  -9.9 °C 30.55in /  1034.4hPa West 6.0mph /  9.7km/h 13.0mph /  20.9km/h 82% 0.00in /  0mm
04:19 18.8 °F /  -7.3 °C 14.2 °F /  -9.9 °C 30.55in /  1034.4hPa West 6.0mph /  9.7km/h 13.0mph /  20.9km/h 82% 0.00in /  0mm
04:24 18.7 °F /  -7.4 °C 14.4 °F /  -9.8 °C 30.56in /  1034.8hPa West 6.0mph /  9.7km/h 12.0mph /  19.3km/h 83% 0.00in /  0mm
04:29 18.5 °F /  -7.5 °C 14.2 °F /  -9.9 °C 30.56in /  1034.8hPa WNW 5.0mph /  8km/h 11.0mph /  17.7km/h 83% 0.00in /  0mm
04:34 18.5 °F /  -7.5 °C 14.5 °F /  -9.7 °C 30.56in /  1034.8hPa West 5.0mph /  8km/h 11.0mph /  17.7km/h 84% 0.00in /  0mm
04:39 18.3 °F /  -7.6 °C 14.3 °F /  -9.8 °C 30.56in /  1034.8hPa WNW 5.0mph /  8km/h 11.0mph /  17.7km/h 84% 0.00in /  0mm
04:44 18.1 °F /  -7.7 °C 13.8 °F /  -10.1 °C 30.56in /  1034.8hPa West 8.0mph /  12.9km/h 8.0mph /  12.9km/h 83% 0.00in /  0mm
04:49 18.2 °F /  -7.7 °C 13.9 °F /  -10.1 °C 30.57in /  1035.1hPa WNW 3.0mph /  4.8km/h 10.0mph /  16.1km/h 83% 0.00in /  0mm
04:54 18.3 °F /  -7.6 °C 14.0 °F /  -10 °C 30.57in /  1035.1hPa West 5.0mph /  8km/h 10.0mph /  16.1km/h 83% 0.00in /  0mm
04:59 18.4 °F /  -7.6 °C 13.8 °F /  -10.1 °C 30.57in /  1035.1hPa WNW 3.0mph /  4.8km/h 8.0mph /  12.9km/h 82% 0.00in /  0mm
05:04 18.6 °F /  -7.4 °C 13.7 °F /  -10.2 °C 30.57in /  1035.1hPa WNW 3.0mph /  4.8km/h 6.0mph /  9.7km/h 81% 0.00in /  0mm
05:09 18.8 °F /  -7.3 °C 13.7 °F /  -10.2 °C 30.57in /  1035.1hPa WNW 5.0mph /  8km/h 9.0mph /  14.5km/h 80% 0.00in /  0mm
05:14 18.9 °F /  -7.3 °C 13.2 °F /  -10.4 °C 30.57in /  1035.1hPa West 7.0mph /  11.3km/h 10.0mph /  16.1km/h 78% 0.00in /  0mm
05:19 19.0 °F /  -7.2 °C 13.0 °F /  -10.6 °C 30.57in /  1035.1hPa WNW 5.0mph /  8km/h 12.0mph /  19.3km/h 77% 0.00in /  0mm
05:24 19.1 °F /  -7.2 °C 13.1 °F /  -10.5 °C 30.57in /  1035.1hPa West 5.0mph /  8km/h 12.0mph /  19.3km/h 77% 0.00in /  0mm
05:29 19.0 °F /  -7.2 °C 13.0 °F /  -10.6 °C 30.57in /  1035.1hPa West 5.0mph /  8km/h 9.0mph /  14.5km/h 77% 0.00in /  0mm
05:34 19.0 °F /  -7.2 °C 13.0 °F /  -10.6 °C 30.57in /  1035.1hPa WNW 5.0mph /  8km/h 9.0mph /  14.5km/h 77% 0.00in /  0mm
05:39 19.0 °F /  -7.2 °C 13.0 °F /  -10.6 °C 30.57in /  1035.1hPa WNW 4.0mph /  6.4km/h 8.0mph /  12.9km/h 77% 0.00in /  0mm
05:44 19.1 °F /  -7.2 °C 12.8 °F /  -10.7 °C 30.57in /  1035.1hPa WNW 5.0mph /  8km/h 9.0mph /  14.5km/h 76% 0.00in /  0mm
05:49 19.2 °F /  -7.1 °C 12.6 °F /  -10.8 °C 30.58in /  1035.4hPa WNW 4.0mph /  6.4km/h 6.0mph /  9.7km/h 75% 0.00in /  0mm
05:54 19.3 °F /  -7.1 °C 12.4 °F /  -10.9 °C 30.58in /  1035.4hPa NW 3.0mph /  4.8km/h 6.0mph /  9.7km/h 74% 0.00in /  0mm
05:59 19.2 °F /  -7.1 °C 11.6 °F /  -11.3 °C 30.58in /  1035.4hPa WSW 9.0mph /  14.5km/h 12.0mph /  19.3km/h 72% 0.00in /  0mm
06:04 19.0 °F /  -7.2 °C 11.8 °F /  -11.2 °C 30.58in /  1035.4hPa NW 2.0mph /  3.2km/h 12.0mph /  19.3km/h 73% 0.00in /  0mm
06:09 18.8 °F /  -7.3 °C 12.2 °F /  -11 °C 30.58in /  1035.4hPa NNW 4.0mph /  6.4km/h 11.0mph /  17.7km/h 75% 0.00in /  0mm
06:14 18.5 °F /  -7.5 °C 12.8 °F /  -10.7 °C 30.59in /  1035.8hPa NNW 5.0mph /  8km/h 11.0mph /  17.7km/h 78% 0.00in /  0mm
06:19 18.2 °F /  -7.7 °C 13.1 °F /  -10.5 °C 30.59in /  1035.8hPa NW 5.0mph /  8km/h 8.0mph /  12.9km/h 80% 0.00in /  0mm
06:24 18.1 °F /  -7.7 °C 13.3 °F /  -10.4 °C 30.59in /  1035.8hPa NW 4.0mph /  6.4km/h 9.0mph /  14.5km/h 81% 0.00in /  0mm
06:29 18.1 °F /  -7.7 °C 13.3 °F /  -10.4 °C 30.59in /  1035.8hPa NW 4.0mph /  6.4km/h 9.0mph /  14.5km/h 81% 0.00in /  0mm
06:34 18.2 °F /  -7.7 °C 13.1 °F /  -10.5 °C 30.59in /  1035.8hPa NW 4.0mph /  6.4km/h 10.0mph /  16.1km/h 80% 0.00in /  0mm
06:39 18.3 °F /  -7.6 °C 13.2 °F /  -10.4 °C 30.60in /  1036.1hPa NNW 5.0mph /  8km/h 12.0mph /  19.3km/h 80% 0.00in /  0mm
06:44 17.5 °F /  -8.1 °C 12.7 °F /  -10.7 °C 30.61in /  1036.5hPa NNE 4.0mph /  6.4km/h 10.0mph /  16.1km/h 81% 0.00in /  0mm
06:49 16.7 °F /  -8.5 °C 12.4 °F /  -10.9 °C 30.61in /  1036.5hPa NNW 6.0mph /  9.7km/h 7.0mph /  11.3km/h 83% 0.00in /  0mm
06:54 16.3 °F /  -8.7 °C 12.3 °F /  -10.9 °C 30.61in /  1036.5hPa North 6.0mph /  9.7km/h 8.0mph /  12.9km/h 84% 0.00in /  0mm
06:59 16.0 °F /  -8.9 °C 12.0 °F /  -11.1 °C 30.62in /  1036.8hPa North 5.0mph /  8km/h 10.0mph /  16.1km/h 84% 0.00in /  0mm
07:04 15.8 °F /  -9 °C 11.8 °F /  -11.2 °C 30.62in /  1036.8hPa North 5.0mph /  8km/h 10.0mph /  16.1km/h 84% 0.00in /  0mm
07:09 15.5 °F /  -9.2 °C 11.5 °F /  -11.4 °C 30.63in /  1037.1hPa North 6.0mph /  9.7km/h 14.0mph /  22.5km/h 84% 0.00in /  0mm
07:14 15.4 °F /  -9.2 °C 11.2 °F /  -11.6 °C 30.63in /  1037.1hPa NNE 4.0mph /  6.4km/h 10.0mph /  16.1km/h 83% 0.00in /  0mm
07:19 15.3 °F /  -9.3 °C 10.8 °F /  -11.8 °C 30.63in /  1037.1hPa NNW 10.0mph /  16.1km/h 13.0mph /  20.9km/h 82% 0.00in /  0mm
07:24 15.2 °F /  -9.3 °C 10.4 °F /  -12 °C 30.64in /  1037.5hPa NNW 3.0mph /  4.8km/h 17.0mph /  27.4km/h 81% 0.00in /  0mm
07:29 15.3 °F /  -9.3 °C 10.2 °F /  -12.1 °C 30.64in /  1037.5hPa North 6.0mph /  9.7km/h 17.0mph /  27.4km/h 80% 0.00in /  0mm
07:34 15.4 °F /  -9.2 °C 10.1 °F /  -12.2 °C 30.64in /  1037.5hPa North 5.0mph /  8km/h 14.0mph /  22.5km/h 79% 0.00in /  0mm
07:39 15.5 °F /  -9.2 °C 9.6 °F /  -12.4 °C 30.65in /  1037.8hPa North 5.0mph /  8km/h 14.0mph /  22.5km/h 77% 0.00in /  0mm
07:44 15.4 °F /  -9.2 °C 9.2 °F /  -12.7 °C 30.65in /  1037.8hPa North 5.0mph /  8km/h 12.0mph /  19.3km/h 76% 0.00in /  0mm
07:49 15.4 °F /  -9.2 °C 8.9 °F /  -12.8 °C 30.65in /  1037.8hPa NNW 4.0mph /  6.4km/h 10.0mph /  16.1km/h 75% 0.00in /  0mm
07:54 15.4 °F /  -9.2 °C 8.9 °F /  -12.8 °C 30.66in /  1038.1hPa North 4.0mph /  6.4km/h 8.0mph /  12.9km/h 75% 0.00in /  0mm
07:59 15.4 °F /  -9.2 °C 8.9 °F /  -12.8 °C 30.66in /  1038.1hPa North 4.0mph /  6.4km/h 13.0mph /  20.9km/h 75% 0.00in /  0mm
08:04 15.5 °F /  -9.2 °C 9.0 °F /  -12.8 °C 30.66in /  1038.1hPa North 5.0mph /  8km/h 13.0mph /  20.9km/h 75% 0.00in /  0mm
08:09 15.5 °F /  -9.2 °C 9.0 °F /  -12.8 °C 30.66in /  1038.1hPa North 4.0mph /  6.4km/h 10.0mph /  16.1km/h 75% 0.00in /  0mm
08:14 15.6 °F /  -9.1 °C 9.4 °F /  -12.6 °C 30.67in /  1038.5hPa North 4.0mph /  6.4km/h 10.0mph /  16.1km/h 76% 0.00in /  0mm
08:19 15.9 °F /  -8.9 °C 9.7 °F /  -12.4 °C 30.67in /  1038.5hPa North 7.0mph /  11.3km/h 9.0mph /  14.5km/h 76% 0.00in /  0mm
08:24 16.0 °F /  -8.9 °C 9.5 °F /  -12.5 °C 30.67in /  1038.5hPa North 5.0mph /  8km/h 8.0mph /  12.9km/h 75% 0.00in /  0mm
08:29 16.1 °F /  -8.8 °C 9.3 °F /  -12.6 °C 30.67in /  1038.5hPa NNW 3.0mph /  4.8km/h 9.0mph /  14.5km/h 74% 0.00in /  0mm
08:34 16.2 °F /  -8.8 °C 8.8 °F /  -12.9 °C 30.67in /  1038.5hPa NNW 5.0mph /  8km/h 11.0mph /  17.7km/h 72% 0.00in /  0mm
08:39 16.0 °F /  -8.9 °C 8.3 °F /  -13.2 °C 30.68in /  1038.8hPa NNW 6.0mph /  9.7km/h 14.0mph /  22.5km/h 71% 0.00in /  0mm
08:44 16.1 °F /  -8.8 °C 8.3 °F /  -13.2 °C 30.68in /  1038.8hPa North 6.0mph /  9.7km/h 14.0mph /  22.5km/h 71% 0.00in /  0mm
08:49 16.2 °F /  -8.8 °C 8.1 °F /  -13.3 °C 30.68in /  1038.8hPa North 5.0mph /  8km/h 9.0mph /  14.5km/h 70% 0.00in /  0mm
08:59 16.8 °F /  -8.4 °C 8.7 °F /  -12.9 °C 30.69in /  1039.2hPa NNE 6.0mph /  9.7km/h 8.0mph /  12.9km/h 70% 0.00in /  0mm
09:04 16.8 °F /  -8.4 °C 8.4 °F /  -13.1 °C 30.69in /  1039.2hPa WNW 4.0mph /  6.4km/h 10.0mph /  16.1km/h 69% 0.00in /  0mm
09:09 16.9 °F /  -8.4 °C 8.5 °F /  -13.1 °C 30.69in /  1039.2hPa North 5.0mph /  8km/h 10.0mph /  16.1km/h 69% 0.00in /  0mm
09:14 17.2 °F /  -8.2 °C 8.8 °F /  -12.9 °C 30.69in /  1039.2hPa NNW 5.0mph /  8km/h 13.0mph /  20.9km/h 69% 0.00in /  0mm
09:19 16.9 °F /  -8.4 °C 8.2 °F /  -13.2 °C 30.70in /  1039.5hPa NNW 6.0mph /  9.7km/h 13.0mph /  20.9km/h 68% 0.00in /  0mm
09:24 16.4 °F /  -8.7 °C 7.7 °F /  -13.5 °C 30.70in /  1039.5hPa NNW 6.0mph /  9.7km/h 14.0mph /  22.5km/h 68% 0.00in /  0mm
09:29 16.3 °F /  -8.7 °C 7.6 °F /  -13.6 °C 30.70in /  1039.5hPa NNW 5.0mph /  8km/h 12.0mph /  19.3km/h 68% 0.00in /  0mm
09:34 16.7 °F /  -8.5 °C 8.0 °F /  -13.3 °C 30.71in /  1039.8hPa NNW 6.0mph /  9.7km/h 11.0mph /  17.7km/h 68% 0.00in /  0mm
09:39 16.5 °F /  -8.6 °C 7.8 °F /  -13.4 °C 30.71in /  1039.8hPa North 5.0mph /  8km/h 13.0mph /  20.9km/h 68% 0.00in /  0mm
09:44 16.4 °F /  -8.7 °C 7.7 °F /  -13.5 °C 30.71in /  1039.8hPa North 5.0mph /  8km/h 13.0mph /  20.9km/h 68% 0.00in /  0mm
09:49 16.7 °F /  -8.5 °C 8.0 °F /  -13.3 °C 30.71in /  1039.8hPa North 4.0mph /  6.4km/h 9.0mph /  14.5km/h 68% 0.00in /  0mm
09:54 16.1 °F /  -8.8 °C 6.7 °F /  -14.1 °C 30.72in /  1040.2hPa NNW 8.0mph /  12.9km/h 11.0mph /  17.7km/h 66% 0.00in /  0mm
09:59 16.2 °F /  -8.8 °C 7.2 °F /  -13.8 °C 30.72in /  1040.2hPa NNE 4.0mph /  6.4km/h 10.0mph /  16.1km/h 67% 0.00in /  0mm
10:04 16.6 °F /  -8.6 °C 7.5 °F /  -13.6 °C 30.72in /  1040.2hPa NNW 4.0mph /  6.4km/h 11.0mph /  17.7km/h 67% 0.00in /  0mm
10:09 16.8 °F /  -8.4 °C 7.7 °F /  -13.5 °C 30.72in /  1040.2hPa NNE 3.0mph /  4.8km/h 7.0mph /  11.3km/h 67% 0.00in /  0mm
10:14 16.6 °F /  -8.6 °C 7.2 °F /  -13.8 °C 30.72in /  1040.2hPa NNE 5.0mph /  8km/h 12.0mph /  19.3km/h 66% 0.00in /  0mm
10:19 16.8 °F /  -8.4 °C 7.4 °F /  -13.7 °C 30.72in /  1040.2hPa North 5.0mph /  8km/h 12.0mph /  19.3km/h 66% 0.00in /  0mm
10:24 16.9 °F /  -8.4 °C 6.8 °F /  -14 °C 30.73in /  1040.5hPa North 5.0mph /  8km/h 10.0mph /  16.1km/h 64% 0.00in /  0mm
10:29 16.8 °F /  -8.4 °C 7.1 °F /  -13.8 °C 30.73in /  1040.5hPa North 6.0mph /  9.7km/h 12.0mph /  19.3km/h 65% 0.00in /  0mm
10:34 17.1 °F /  -8.3 °C 7.3 °F /  -13.7 °C 30.73in /  1040.5hPa NNW 6.0mph /  9.7km/h 9.0mph /  14.5km/h 65% 0.00in /  0mm
10:39 17.3 °F /  -8.2 °C 7.5 °F /  -13.6 °C 30.73in /  1040.5hPa North 10.0mph /  16.1km/h 10.0mph /  16.1km/h 65% 0.00in /  0mm
10:44 17.6 °F /  -8 °C 7.8 °F /  -13.4 °C 30.73in /  1040.5hPa North 5.0mph /  8km/h 12.0mph /  19.3km/h 65% 0.00in /  0mm
10:49 16.7 °F /  -8.5 °C 5.9 °F /  -14.5 °C 30.74in /  1040.9hPa North 6.0mph /  9.7km/h 15.0mph /  24.1km/h 62% 0.00in /  0mm
10:54 17.0 °F /  -8.3 °C 6.9 °F /  -13.9 °C 30.73in /  1040.5hPa North 5.0mph /  8km/h 8.0mph /  12.9km/h 64% 0.00in /  0mm
10:59 17.5 °F /  -8.1 °C 7.0 °F /  -13.9 °C 30.74in /  1040.9hPa NNE 7.0mph /  11.3km/h 10.0mph /  16.1km/h 63% 0.00in /  0mm
11:04 17.4 °F /  -8.1 °C 7.6 °F /  -13.6 °C 30.74in /  1040.9hPa North 9.0mph /  14.5km/h 11.0mph /  17.7km/h 65% 0.00in /  0mm
11:09 18.2 °F /  -7.7 °C 8.4 °F /  -13.1 °C 30.74in /  1040.9hPa NNE 6.0mph /  9.7km/h 13.0mph /  20.9km/h 65% 0.00in /  0mm
11:14 18.1 °F /  -7.7 °C 6.5 °F /  -14.2 °C 30.74in /  1040.9hPa NNW 5.0mph /  8km/h 8.0mph /  12.9km/h 60% 0.00in /  0mm
11:19 18.9 °F /  -7.3 °C 8.4 °F /  -13.1 °C 30.74in /  1040.9hPa NNW 4.0mph /  6.4km/h 8.0mph /  12.9km/h 63% 0.00in /  0mm
11:24 18.1 °F /  -7.7 °C 7.3 °F /  -13.7 °C 30.74in /  1040.9hPa NNW 6.0mph /  9.7km/h 12.0mph /  19.3km/h 62% 0.00in /  0mm
11:29 18.0 °F /  -7.8 °C 6.8 °F /  -14 °C 30.74in /  1040.9hPa NNW 6.0mph /  9.7km/h 12.0mph /  19.3km/h 61% 0.00in /  0mm
11:34 17.4 °F /  -8.1 °C 5.9 °F /  -14.5 °C 30.74in /  1040.9hPa NNW 5.0mph /  8km/h 14.0mph /  22.5km/h 60% 0.00in /  0mm
11:39 17.4 °F /  -8.1 °C 4.7 °F /  -15.2 °C 30.74in /  1040.9hPa NNW 5.0mph /  8km/h 14.0mph /  22.5km/h 57% 0.00in /  0mm
11:44 17.5 °F /  -8.1 °C 5.6 °F /  -14.7 °C 30.74in /  1040.9hPa NW 8.0mph /  12.9km/h 10.0mph /  16.1km/h 59% 0.00in /  0mm
11:49 17.5 °F /  -8.1 °C 5.6 °F /  -14.7 °C 30.75in /  1041.2hPa NNW 6.0mph /  9.7km/h 14.0mph /  22.5km/h 59% 0.00in /  0mm
11:54 17.3 °F /  -8.2 °C 5.0 °F /  -15 °C 30.74in /  1040.9hPa NNW 6.0mph /  9.7km/h 14.0mph /  22.5km/h 58% 0.00in /  0mm
11:59 17.6 °F /  -8 °C 4.5 °F /  -15.3 °C 30.74in /  1040.9hPa North 3.0mph /  4.8km/h 9.0mph /  14.5km/h 56% 0.00in /  0mm
12:04 18.5 °F /  -7.5 °C 7.6 °F /  -13.6 °C 30.74in /  1040.9hPa North 8.0mph /  12.9km/h 11.0mph /  17.7km/h 62% 0.00in /  0mm
12:09 17.8 °F /  -7.9 °C 3.9 °F /  -15.6 °C 30.74in /  1040.9hPa North 5.0mph /  8km/h 11.0mph /  17.7km/h 54% 0.00in /  0mm
12:14 18.3 °F /  -7.6 °C 5.6 °F /  -14.7 °C 30.74in /  1040.9hPa NNW 6.0mph /  9.7km/h 11.0mph /  17.7km/h 57% 0.00in /  0mm
12:19 17.9 °F /  -7.8 °C 4.8 °F /  -15.1 °C 30.74in /  1040.9hPa NNE 3.0mph /  4.8km/h 10.0mph /  16.1km/h 56% 0.00in /  0mm
12:24 18.4 °F /  -7.6 °C 5.3 °F /  -14.8 °C 30.75in /  1041.2hPa North 5.0mph /  8km/h 10.0mph /  16.1km/h 56% 0.00in /  0mm
12:29 18.6 °F /  -7.4 °C 5.1 °F /  -14.9 °C 30.75in /  1041.2hPa NNW 5.0mph /  8km/h 11.0mph /  17.7km/h 55% 0.00in /  0mm
12:34 17.6 °F /  -8 °C 2.1 °F /  -16.6 °C 30.75in /  1041.2hPa NNW 5.0mph /  8km/h 11.0mph /  17.7km/h 50% 0.00in /  0mm
12:39 17.9 °F /  -7.8 °C 4.8 °F /  -15.1 °C 30.75in /  1041.2hPa NNW 6.0mph /  9.7km/h 12.0mph /  19.3km/h 56% 0.00in /  0mm
12:44 18.5 °F /  -7.5 °C 6.2 °F /  -14.3 °C 30.75in /  1041.2hPa North 3.0mph /  4.8km/h 9.0mph /  14.5km/h 58% 0.00in /  0mm
12:49 18.5 °F /  -7.5 °C 5.4 °F /  -14.8 °C 30.74in /  1040.9hPa NNW 2.0mph /  3.2km/h 7.0mph /  11.3km/h 56% 0.00in /  0mm
12:54 18.6 °F /  -7.4 °C 6.3 °F /  -14.3 °C 30.74in /  1040.9hPa NW 7.0mph /  11.3km/h 10.0mph /  16.1km/h 58% 0.00in /  0mm
12:59 18.2 °F /  -7.7 °C 5.9 °F /  -14.5 °C 30.74in /  1040.9hPa NNW 5.0mph /  8km/h 10.0mph /  16.1km/h 58% 0.00in /  0mm
13:04 18.1 °F /  -7.7 °C 5.4 °F /  -14.8 °C 30.74in /  1040.9hPa NNW 5.0mph /  8km/h 11.0mph /  17.7km/h 57% 0.00in /  0mm
13:09 18.5 °F /  -7.5 °C 4.2 °F /  -15.4 °C 30.74in /  1040.9hPa NNW 5.0mph /  8km/h 11.0mph /  17.7km/h 53% 0.00in /  0mm
13:14 18.4 °F /  -7.6 °C 6.4 °F /  -14.2 °C 30.74in /  1040.9hPa NW 3.0mph /  4.8km/h 11.0mph /  17.7km/h 59% 0.00in /  0mm
13:19 19.1 °F /  -7.2 °C 4.8 °F /  -15.1 °C 30.74in /  1040.9hPa WNW 6.0mph /  9.7km/h 12.0mph /  19.3km/h 53% 0.00in /  0mm
13:24 19.1 °F /  -7.2 °C 5.6 °F /  -14.7 °C 30.74in /  1040.9hPa NW 2.0mph /  3.2km/h 8.0mph /  12.9km/h 55% 0.00in /  0mm
13:29 19.9 °F /  -6.7 °C 6.3 °F /  -14.3 °C 30.74in /  1040.9hPa NW 8.0mph /  12.9km/h 10.0mph /  16.1km/h 55% 0.00in /  0mm
13:34 19.7 °F /  -6.8 °C 6.1 °F /  -14.4 °C 30.74in /  1040.9hPa NW 5.0mph /  8km/h 10.0mph /  16.1km/h 55% 0.00in /  0mm
13:39 19.2 °F /  -7.1 °C 4.0 °F /  -15.6 °C 30.74in /  1040.9hPa NNW 5.0mph /  8km/h 11.0mph /  17.7km/h 51% 0.00in /  0mm
13:44 19.2 °F /  -7.1 °C 6.4 °F /  -14.2 °C 30.74in /  1040.9hPa NNW 5.0mph /  8km/h 11.0mph /  17.7km/h 57% 0.00in /  0mm
13:49 19.2 °F /  -7.1 °C 4.8 °F /  -15.1 °C 30.73in /  1040.5hPa WSW 4.0mph /  6.4km/h 11.0mph /  17.7km/h 53% 0.00in /  0mm
13:54 18.3 °F /  -7.6 °C 3.2 °F /  -16 °C 30.73in /  1040.5hPa NNE 6.0mph /  9.7km/h 11.0mph /  17.7km/h 51% 0.00in /  0mm
13:59 19.1 °F /  -7.2 °C 5.6 °F /  -14.7 °C 30.73in /  1040.5hPa NNW 8.0mph /  12.9km/h 12.0mph /  19.3km/h 55% 0.00in /  0mm
14:04 20.1 °F /  -6.6 °C 5.3 °F /  -14.8 °C 30.73in /  1040.5hPa NNW 4.0mph /  6.4km/h 12.0mph /  19.3km/h 52% 0.00in /  0mm
14:09 19.1 °F /  -7.2 °C 3.5 °F /  -15.8 °C 30.73in /  1040.5hPa NW 4.0mph /  6.4km/h 9.0mph /  14.5km/h 50% 0.00in /  0mm
14:14 19.7 °F /  -6.8 °C 5.3 °F /  -14.8 °C 30.73in /  1040.5hPa West 4.0mph /  6.4km/h 8.0mph /  12.9km/h 53% 0.00in /  0mm
14:19 19.3 °F /  -7.1 °C 4.5 °F /  -15.3 °C 30.73in /  1040.5hPa West 6.0mph /  9.7km/h 7.0mph /  11.3km/h 52% 0.00in /  0mm
14:24 20.5 °F /  -6.4 °C 6.9 °F /  -13.9 °C 30.73in /  1040.5hPa NNW 4.0mph /  6.4km/h 7.0mph /  11.3km/h 55% 0.00in /  0mm
14:29 20.2 °F /  -6.6 °C 4.9 °F /  -15.1 °C 30.73in /  1040.5hPa WNW 4.0mph /  6.4km/h 8.0mph /  12.9km/h 51% 0.00in /  0mm
14:34 19.9 °F /  -6.7 °C 4.2 °F /  -15.4 °C 30.73in /  1040.5hPa NW 4.0mph /  6.4km/h 9.0mph /  14.5km/h 50% 0.00in /  0mm
14:39 20.2 °F /  -6.6 °C 3.6 °F /  -15.8 °C 30.73in /  1040.5hPa NW 5.0mph /  8km/h 11.0mph /  17.7km/h 48% 0.00in /  0mm
14:44 20.1 °F /  -6.6 °C 5.3 °F /  -14.8 °C 30.73in /  1040.5hPa NW 5.0mph /  8km/h 11.0mph /  17.7km/h 52% 0.00in /  0mm
14:49 20.5 °F /  -6.4 °C 6.1 °F /  -14.4 °C 30.73in /  1040.5hPa NW 4.0mph /  6.4km/h 10.0mph /  16.1km/h 53% 0.00in /  0mm
14:54 19.9 °F /  -6.7 °C 5.1 °F /  -14.9 °C 30.73in /  1040.5hPa NW 3.0mph /  4.8km/h 9.0mph /  14.5km/h 52% 0.00in /  0mm
14:59 20.5 °F /  -6.4 °C 5.2 °F /  -14.9 °C 30.73in /  1040.5hPa NW 1.0mph /  1.6km/h 9.0mph /  14.5km/h 51% 0.00in /  0mm
15:04 20.3 °F /  -6.5 °C 4.6 °F /  -15.2 °C 30.73in /  1040.5hPa NW 4.0mph /  6.4km/h 10.0mph /  16.1km/h 50% 0.00in /  0mm
15:09 20.0 °F /  -6.7 °C 3.9 °F /  -15.6 °C 30.73in /  1040.5hPa NW 4.0mph /  6.4km/h 10.0mph /  16.1km/h 49% 0.00in /  0mm
15:14 19.3 °F /  -7.1 °C 2.3 °F /  -16.5 °C 30.73in /  1040.5hPa WSW 6.0mph /  9.7km/h 11.0mph /  17.7km/h 47% 0.00in /  0mm
15:19 20.3 °F /  -6.5 °C 4.2 °F /  -15.4 °C 30.73in /  1040.5hPa NW 2.0mph /  3.2km/h 10.0mph /  16.1km/h 49% 0.00in /  0mm
15:24 20.1 °F /  -6.6 °C 3.1 °F /  -16.1 °C 30.73in /  1040.5hPa NNW 3.0mph /  4.8km/h 9.0mph /  14.5km/h 47% 0.00in /  0mm
15:29 20.3 °F /  -6.5 °C 4.6 °F /  -15.2 °C 30.73in /  1040.5hPa NW 4.0mph /  6.4km/h 11.0mph /  17.7km/h 50% 0.00in /  0mm
15:34 19.8 °F /  -6.8 °C 3.7 °F /  -15.7 °C 30.72in /  1040.2hPa NW 4.0mph /  6.4km/h 11.0mph /  17.7km/h 49% 0.00in /  0mm
15:39 19.5 °F /  -6.9 °C 3.0 °F /  -16.1 °C 30.73in /  1040.5hPa NW 5.0mph /  8km/h 10.0mph /  16.1km/h 48% 0.00in /  0mm
15:44 19.3 °F /  -7.1 °C 3.2 °F /  -16 °C 30.73in /  1040.5hPa North 5.0mph /  8km/h 10.0mph /  16.1km/h 49% 0.00in /  0mm
15:49 19.3 °F /  -7.1 °C 2.3 °F /  -16.5 °C 30.73in /  1040.5hPa NNW 6.0mph /  9.7km/h 7.0mph /  11.3km/h 47% 0.00in /  0mm
15:54 20.1 °F /  -6.6 °C 3.5 °F /  -15.8 °C 30.73in /  1040.5hPa NNW 1.0mph /  1.6km/h 8.0mph /  12.9km/h 48% 0.00in /  0mm
15:59 20.2 °F /  -6.6 °C 2.7 °F /  -16.3 °C 30.73in /  1040.5hPa WNW 7.0mph /  11.3km/h 8.0mph /  12.9km/h 46% 0.00in /  0mm
16:04 19.7 °F /  -6.8 °C 2.7 °F /  -16.3 °C 30.73in /  1040.5hPa NNW 4.0mph /  6.4km/h 8.0mph /  12.9km/h 47% 0.00in /  0mm
16:09 19.8 °F /  -6.8 °C 1.8 °F /  -16.8 °C 30.73in /  1040.5hPa North 4.0mph /  6.4km/h 7.0mph /  11.3km/h 45% 0.00in /  0mm
16:14 19.5 °F /  -6.9 °C 0.6 °F /  -17.4 °C 30.72in /  1040.2hPa NE 4.0mph /  6.4km/h 7.0mph /  11.3km/h 43% 0.00in /  0mm
16:19 19.7 °F /  -6.8 °C 0.8 °F /  -17.3 °C 30.72in /  1040.2hPa NW 6.0mph /  9.7km/h 6.0mph /  9.7km/h 43% 0.00in /  0mm
16:24 19.4 °F /  -7 °C -1.0 °F /  -18.3 °C 30.72in /  1040.2hPa NNE 2.0mph /  3.2km/h 7.0mph /  11.3km/h 40% 0.00in /  0mm
16:29 19.4 °F /  -7 °C 0.0 °F /  -17.8 °C 30.72in /  1040.2hPa NW 4.0mph /  6.4km/h 9.0mph /  14.5km/h 42% 0.00in /  0mm
16:34 19.5 °F /  -6.9 °C 0.6 °F /  -17.4 °C 30.72in /  1040.2hPa North 4.0mph /  6.4km/h 9.0mph /  14.5km/h 43% 0.00in /  0mm
16:39 19.1 °F /  -7.2 °C 0.2 °F /  -17.7 °C 30.72in /  1040.2hPa North 4.0mph /  6.4km/h 7.0mph /  11.3km/h 43% 0.00in /  0mm
16:44 19.1 °F /  -7.2 °C 1.2 °F /  -17.1 °C 30.72in /  1040.2hPa North 4.0mph /  6.4km/h 7.0mph /  11.3km/h 45% 0.00in /  0mm
16:49 19.1 °F /  -7.2 °C 0.7 °F /  -17.4 °C 30.72in /  1040.2hPa North 4.0mph /  6.4km/h 7.0mph /  11.3km/h 44% 0.00in /  0mm
16:54 18.9 °F /  -7.3 °C 1.0 °F /  -17.2 °C 30.72in /  1040.2hPa North 3.0mph /  4.8km/h 6.0mph /  9.7km/h 45% 0.00in /  0mm
16:59 18.7 °F /  -7.4 °C 0.4 °F /  -17.6 °C 30.72in /  1040.2hPa NNW 4.0mph /  6.4km/h 8.0mph /  12.9km/h 44% 0.00in /  0mm
17:04 18.3 °F /  -7.6 °C 0.9 °F /  -17.3 °C 30.72in /  1040.2hPa NNE 2.0mph /  3.2km/h 8.0mph /  12.9km/h 46% 0.00in /  0mm
17:09 18.3 °F /  -7.6 °C 0.9 °F /  -17.3 °C 30.72in /  1040.2hPa North 4.0mph /  6.4km/h 8.0mph /  12.9km/h 46% 0.00in /  0mm
17:14 18.1 °F /  -7.7 °C 0.3 °F /  -17.6 °C 30.72in /  1040.2hPa North 4.0mph /  6.4km/h 8.0mph /  12.9km/h 45% 0.00in /  0mm
17:19 18.2 °F /  -7.7 °C -0.1 °F /  -17.8 °C 30.72in /  1040.2hPa North 3.0mph /  4.8km/h 7.0mph /  11.3km/h 44% 0.00in /  0mm
17:24 17.9 °F /  -7.8 °C -0.4 °F /  -18 °C 30.72in /  1040.2hPa NW 2.0mph /  3.2km/h 7.0mph /  11.3km/h 44% 0.00in /  0mm
17:29 17.7 °F /  -7.9 °C -0.6 °F /  -18.1 °C 30.72in /  1040.2hPa NNE 3.0mph /  4.8km/h 6.0mph /  9.7km/h 44% 0.00in /  0mm
17:34 17.5 °F /  -8.1 °C 0.7 °F /  -17.4 °C 30.72in /  1040.2hPa NNE 4.0mph /  6.4km/h 5.0mph /  8km/h 47% 0.00in /  0mm
17:39 17.4 °F /  -8.1 °C 1.0 °F /  -17.2 °C 30.72in /  1040.2hPa NNE 2.0mph /  3.2km/h 5.0mph /  8km/h 48% 0.00in /  0mm
17:44 17.3 °F /  -8.2 °C 1.4 °F /  -17 °C 30.72in /  1040.2hPa North 3.0mph /  4.8km/h 6.0mph /  9.7km/h 49% 0.00in /  0mm
17:49 17.0 °F /  -8.3 °C -0.3 °F /  -17.9 °C 30.72in /  1040.2hPa North 3.0mph /  4.8km/h 6.0mph /  9.7km/h 46% 0.00in /  0mm
17:54 16.9 °F /  -8.4 °C -0.3 °F /  -17.9 °C 30.72in /  1040.2hPa NNW 2.0mph /  3.2km/h 5.0mph /  8km/h 46% 0.00in /  0mm
17:59 16.7 °F /  -8.5 °C -0.5 °F /  -18.1 °C 30.73in /  1040.5hPa North 3.0mph /  4.8km/h 6.0mph /  9.7km/h 46% 0.00in /  0mm
18:04 16.4 °F /  -8.7 °C -0.3 °F /  -17.9 °C 30.73in /  1040.5hPa NNE 2.0mph /  3.2km/h 6.0mph /  9.7km/h 47% 0.00in /  0mm
18:09 16.3 °F /  -8.7 °C -0.9 °F /  -18.3 °C 30.73in /  1040.5hPa NNW 2.0mph /  3.2km/h 6.0mph /  9.7km/h 46% 0.00in /  0mm
18:14 16.1 °F /  -8.8 °C -0.6 °F /  -18.1 °C 30.73in /  1040.5hPa NNW 3.0mph /  4.8km/h 6.0mph /  9.7km/h 47% 0.00in /  0mm
18:19 16.2 °F /  -8.8 °C -0.1 °F /  -17.8 °C 30.73in /  1040.5hPa North 3.0mph /  4.8km/h 6.0mph /  9.7km/h 48% 0.00in /  0mm
18:24 16.0 °F /  -8.9 °C -0.3 °F /  -17.9 °C 30.73in /  1040.5hPa North 3.0mph /  4.8km/h 6.0mph /  9.7km/h 48% 0.00in /  0mm
18:29 15.8 °F /  -9 °C -0.5 °F /  -18.1 °C 30.73in /  1040.5hPa North 3.0mph /  4.8km/h 5.0mph /  8km/h 48% 0.00in /  0mm
18:34 15.7 °F /  -9.1 °C -0.1 °F /  -17.8 °C 30.73in /  1040.5hPa NNE 2.0mph /  3.2km/h 3.0mph /  4.8km/h 49% 0.00in /  0mm
18:39 15.6 °F /  -9.1 °C 0.2 °F /  -17.7 °C 30.73in /  1040.5hPa North 2.0mph /  3.2km/h 4.0mph /  6.4km/h 50% 0.00in /  0mm
18:44 15.5 °F /  -9.2 °C 0.1 °F /  -17.7 °C 30.73in /  1040.5hPa North 2.0mph /  3.2km/h 4.0mph /  6.4km/h 50% 0.00in /  0mm
18:49 15.3 °F /  -9.3 °C 0.0 °F /  -17.8 °C 30.73in /  1040.5hPa North 2.0mph /  3.2km/h 4.0mph /  6.4km/h 50% 0.00in /  0mm
18:54 15.3 °F /  -9.3 °C 0.4 °F /  -17.6 °C 30.73in /  1040.5hPa NNE 4.0mph /  6.4km/h 5.0mph /  8km/h 51% 0.00in /  0mm
18:59 15.2 °F /  -9.3 °C 0.3 °F /  -17.6 °C 30.73in /  1040.5hPa North 2.0mph /  3.2km/h 5.0mph /  8km/h 51% 0.00in /  0mm
19:04 15.2 °F /  -9.3 °C 0.3 °F /  -17.6 °C 30.74in /  1040.9hPa North 2.0mph /  3.2km/h 4.0mph /  6.4km/h 51% 0.00in /  0mm
19:09 15.0 °F /  -9.4 °C 0.9 °F /  -17.3 °C 30.74in /  1040.9hPa Calm   4.0mph /  6.4km/h 53% 0.00in /  0mm
19:14 14.7 °F /  -9.6 °C 1.0 °F /  -17.2 °C 30.74in /  1040.9hPa NNW 1.0mph /  1.6km/h 4.0mph /  6.4km/h 54% 0.00in /  0mm
19:19 14.7 °F /  -9.6 °C 1.0 °F /  -17.2 °C 30.74in /  1040.9hPa NNW 1.0mph /  1.6km/h 3.0mph /  4.8km/h 54% 0.00in /  0mm
19:24 14.5 °F /  -9.7 °C 1.2 °F /  -17.1 °C 30.74in /  1040.9hPa NNW 2.0mph /  3.2km/h 4.0mph /  6.4km/h 55% 0.00in /  0mm
19:29 14.3 °F /  -9.8 °C 1.1 °F /  -17.2 °C 30.74in /  1040.9hPa NNW 2.0mph /  3.2km/h 4.0mph /  6.4km/h 55% 0.00in /  0mm
19:34 14.2 °F /  -9.9 °C 1.0 °F /  -17.2 °C 30.74in /  1040.9hPa NNW 1.0mph /  1.6km/h 3.0mph /  4.8km/h 55% 0.00in /  0mm
19:39 14.1 °F /  -9.9 °C 1.6 °F /  -16.9 °C 30.74in /  1040.9hPa NNW 2.0mph /  3.2km/h 3.0mph /  4.8km/h 57% 0.00in /  0mm
19:44 14.1 °F /  -9.9 °C 1.3 °F /  -17.1 °C 30.74in /  1040.9hPa North 1.0mph /  1.6km/h 3.0mph /  4.8km/h 56% 0.00in /  0mm
19:49 14.1 °F /  -9.9 °C 1.3 °F /  -17.1 °C 30.74in /  1040.9hPa North 2.0mph /  3.2km/h 3.0mph /  4.8km/h 56% 0.00in /  0mm
19:54 14.2 °F /  -9.9 °C 1.4 °F /  -17 °C 30.74in /  1040.9hPa NNE 2.0mph /  3.2km/h 3.0mph /  4.8km/h 56% 0.00in /  0mm
19:59 14.1 °F /  -9.9 °C 1.3 °F /  -17.1 °C 30.74in /  1040.9hPa NNE 2.0mph /  3.2km/h 2.0mph /  3.2km/h 56% 0.00in /  0mm
20:04 13.9 °F /  -10.1 °C 1.1 °F /  -17.2 °C 30.74in /  1040.9hPa NE 2.0mph /  3.2km/h 4.0mph /  6.4km/h 56% 0.00in /  0mm
20:09 13.9 °F /  -10.1 °C 1.5 °F /  -16.9 °C 30.75in /  1041.2hPa NE 1.0mph /  1.6km/h 3.0mph /  4.8km/h 57% 0.00in /  0mm
20:14 13.9 °F /  -10.1 °C 1.5 °F /  -16.9 °C 30.74in /  1040.9hPa NE 2.0mph /  3.2km/h 3.0mph /  4.8km/h 57% 0.00in /  0mm
20:19 13.9 °F /  -10.1 °C 1.1 °F /  -17.2 °C 30.74in /  1040.9hPa NE 2.0mph /  3.2km/h 3.0mph /  4.8km/h 56% 0.00in /  0mm
20:24 13.9 °F /  -10.1 °C 1.5 °F /  -16.9 °C 30.74in /  1040.9hPa NE 1.0mph /  1.6km/h 3.0mph /  4.8km/h 57% 0.00in /  0mm
20:29 13.8 °F /  -10.1 °C 1.4 °F /  -17 °C 30.74in /  1040.9hPa NE 1.0mph /  1.6km/h 3.0mph /  4.8km/h 57% 0.00in /  0mm
20:34 13.8 °F /  -10.1 °C 1.4 °F /  -17 °C 30.74in /  1040.9hPa NE 1.0mph /  1.6km/h 3.0mph /  4.8km/h 57% 0.00in /  0mm
20:39 13.6 °F /  -10.2 °C 1.2 °F /  -17.1 °C 30.74in /  1040.9hPa Calm   2.0mph /  3.2km/h 57% 0.00in /  0mm
20:44 13.6 °F /  -10.2 °C 1.2 °F /  -17.1 °C 30.74in /  1040.9hPa Calm   2.0mph /  3.2km/h 57% 0.00in /  0mm
20:49 13.6 °F /  -10.2 °C 1.2 °F /  -17.1 °C 30.74in /  1040.9hPa Calm   3.0mph /  4.8km/h 57% 0.00in /  0mm
20:54 13.3 °F /  -10.4 °C 1.6 °F /  -16.9 °C 30.74in /  1040.9hPa ENE 1.0mph /  1.6km/h 3.0mph /  4.8km/h 59% 0.00in /  0mm
20:59 13.2 °F /  -10.4 °C 1.5 °F /  -16.9 °C 30.74in /  1040.9hPa Calm   1.0mph /  1.6km/h 59% 0.00in /  0mm
21:04 13.2 °F /  -10.4 °C 1.5 °F /  -16.9 °C 30.74in /  1040.9hPa ENE 1.0mph /  1.6km/h 3.0mph /  4.8km/h 59% 0.00in /  0mm
21:09 13.2 °F /  -10.4 °C 1.5 °F /  -16.9 °C 30.75in /  1041.2hPa Calm   2.0mph /  3.2km/h 59% 0.00in /  0mm
21:14 13.0 °F /  -10.6 °C 1.3 °F /  -17.1 °C 30.74in /  1040.9hPa Calm     59% 0.00in /  0mm
21:19 13.0 °F /  -10.6 °C 1.3 °F /  -17.1 °C 30.75in /  1041.2hPa East 2.0mph /  3.2km/h 3.0mph /  4.8km/h 59% 0.00in /  0mm
21:24 13.0 °F /  -10.6 °C 1.3 °F /  -17.1 °C 30.75in /  1041.2hPa East 1.0mph /  1.6km/h 3.0mph /  4.8km/h 59% 0.00in /  0mm
21:29 12.9 °F /  -10.6 °C 2.0 °F /  -16.7 °C 30.75in /  1041.2hPa Calm   2.0mph /  3.2km/h 61% 0.00in /  0mm
21:34 12.8 °F /  -10.7 °C 1.9 °F /  -16.7 °C 30.75in /  1041.2hPa ESE 1.0mph /  1.6km/h 2.0mph /  3.2km/h 61% 0.00in /  0mm
21:39 12.7 °F /  -10.7 °C 1.4 °F /  -17 °C 30.75in /  1041.2hPa ESE 1.0mph /  1.6km/h 3.0mph /  4.8km/h 60% 0.00in /  0mm
21:44 12.7 °F /  -10.7 °C 1.4 °F /  -17 °C 30.75in /  1041.2hPa Calm   1.0mph /  1.6km/h 60% 0.00in /  0mm
21:49 12.8 °F /  -10.7 °C 1.5 °F /  -16.9 °C 30.75in /  1041.2hPa Calm     60% 0.00in /  0mm
21:54 12.7 °F /  -10.7 °C 1.4 °F /  -17 °C 30.75in /  1041.2hPa Calm   2.0mph /  3.2km/h 60% 0.00in /  0mm
21:59 12.7 °F /  -10.7 °C 1.4 °F /  -17 °C 30.75in /  1041.2hPa Calm   2.0mph /  3.2km/h 60% 0.00in /  0mm
22:04 12.7 °F /  -10.7 °C 1.4 °F /  -17 °C 30.75in /  1041.2hPa Calm   2.0mph /  3.2km/h 60% 0.00in /  0mm
22:09 12.7 °F /  -10.7 °C 1.8 °F /  -16.8 °C 30.75in /  1041.2hPa Calm     61% 0.00in /  0mm
22:14 12.6 °F /  -10.8 °C 1.7 °F /  -16.8 °C 30.75in /  1041.2hPa Calm     61% 0.00in /  0mm
22:19 12.5 °F /  -10.8 °C 1.9 °F /  -16.7 °C 30.75in /  1041.2hPa SE 1.0mph /  1.6km/h 3.0mph /  4.8km/h 62% 0.00in /  0mm
22:24 12.3 °F /  -10.9 °C 1.7 °F /  -16.8 °C 30.75in /  1041.2hPa Calm   3.0mph /  4.8km/h 62% 0.00in /  0mm
22:29 12.2 °F /  -11 °C 2.0 °F /  -16.7 °C 30.74in /  1040.9hPa Calm   2.0mph /  3.2km/h 63% 0.00in /  0mm
22:34 12.1 °F /  -11.1 °C 1.6 °F /  -16.9 °C 30.74in /  1040.9hPa SE 1.0mph /  1.6km/h 4.0mph /  6.4km/h 62% 0.00in /  0mm
22:39 12.1 °F /  -11.1 °C 1.6 °F /  -16.9 °C 30.74in /  1040.9hPa SSE 1.0mph /  1.6km/h 3.0mph /  4.8km/h 62% 0.00in /  0mm
22:44 12.1 °F /  -11.1 °C 1.6 °F /  -16.9 °C 30.74in /  1040.9hPa SE 1.0mph /  1.6km/h 3.0mph /  4.8km/h 62% 0.00in /  0mm
22:49 12.1 °F /  -11.1 °C 1.6 °F /  -16.9 °C 30.74in /  1040.9hPa Calm   3.0mph /  4.8km/h 62% 0.00in /  0mm
22:54 12.0 °F /  -11.1 °C 1.8 °F /  -16.8 °C 30.74in /  1040.9hPa Calm   1.0mph /  1.6km/h 63% 0.00in /  0mm
22:59 11.9 °F /  -11.2 °C 1.7 °F /  -16.8 °C 30.74in /  1040.9hPa ESE 2.0mph /  3.2km/h 2.0mph /  3.2km/h 63% 0.00in /  0mm
23:04 11.9 °F /  -11.2 °C 2.0 °F /  -16.7 °C 30.74in /  1040.9hPa Calm   3.0mph /  4.8km/h 64% 0.00in /  0mm
23:09 11.7 °F /  -11.3 °C 1.9 °F /  -16.7 °C 30.74in /  1040.9hPa ESE 1.0mph /  1.6km/h 3.0mph /  4.8km/h 64% 0.00in /  0mm
23:14 11.7 °F /  -11.3 °C 1.9 °F /  -16.7 °C 30.74in /  1040.9hPa SE 1.0mph /  1.6km/h 3.0mph /  4.8km/h 64% 0.00in /  0mm
23:19 11.6 °F /  -11.3 °C 1.8 °F /  -16.8 °C 30.74in /  1040.9hPa SE 1.0mph /  1.6km/h 3.0mph /  4.8km/h 64% 0.00in /  0mm
23:24 11.5 °F /  -11.4 °C 2.0 °F /  -16.7 °C 30.74in /  1040.9hPa ESE 1.0mph /  1.6km/h 3.0mph /  4.8km/h 65% 0.00in /  0mm
23:29 11.3 °F /  -11.5 °C 2.1 °F /  -16.6 °C 30.74in /  1040.9hPa ESE 1.0mph /  1.6km/h 2.0mph /  3.2km/h 66% 0.00in /  0mm
23:34 11.2 °F /  -11.6 °C 2.0 °F /  -16.7 °C 30.75in /  1041.2hPa Calm   2.0mph /  3.2km/h 66% 0.00in /  0mm
23:39 11.1 °F /  -11.6 °C 1.9 °F /  -16.7 °C 30.75in /  1041.2hPa SE 1.0mph /  1.6km/h 3.0mph /  4.8km/h 66% 0.00in /  0mm
23:44 11.2 °F /  -11.6 °C 2.0 °F /  -16.7 °C 30.75in /  1041.2hPa SE 1.0mph /  1.6km/h 3.0mph /  4.8km/h 66% 0.00in /  0mm
23:49 10.8 °F /  -11.8 °C 1.7 °F /  -16.8 °C 30.75in /  1041.2hPa SE 1.0mph /  1.6km/h 3.0mph /  4.8km/h 66% 0.00in /  0mm
23:54 10.7 °F /  -11.8 °C 2.2 °F /  -16.6 °C 30.75in /  1041.2hPa Calm     68% 0.00in /  0mm
23:59 10.5 °F /  -11.9 °C 2.0 °F /  -16.7 °C 30.75in /  1041.2hPa Calm     68% 0.00in /  0mm
Buffalo, New York, USA
Compliments of Weather Underground - 2.5 mb